sensor_id;sensor_type;location;lat;lon;timestamp;temperature;humidity
36790;DHT22;22740;52.182;8.780;2023-09-18T00:05:15;20.20;99.90
36790;DHT22;22740;52.182;8.780;2023-09-18T00:11:17;20.00;99.90
36790;DHT22;22740;52.182;8.780;2023-09-18T00:17:19;19.80;99.90
36790;DHT22;22740;52.182;8.780;2023-09-18T00:23:22;19.70;99.90
36790;DHT22;22740;52.182;8.780;2023-09-18T00:29:24;19.70;99.90
36790;DHT22;22740;52.182;8.780;2023-09-18T00:35:26;19.70;99.90
36790;DHT22;22740;52.182;8.780;2023-09-18T00:41:28;19.60;99.90
36790;DHT22;22740;52.182;8.780;2023-09-18T00:47:30;19.50;99.90
36790;DHT22;22740;52.182;8.780;2023-09-18T00:53:32;19.20;99.90
36790;DHT22;22740;52.182;8.780;2023-09-18T00:59:34;19.20;99.90
36790;DHT22;22740;52.182;8.780;2023-09-18T01:05:36;19.40;99.90
36790;DHT22;22740;52.182;8.780;2023-09-18T01:11:43;19.60;99.90
36790;DHT22;22740;52.182;8.780;2023-09-18T01:17:47;19.90;99.90
36790;DHT22;22740;52.182;8.780;2023-09-18T01:23:49;20.50;99.90
36790;DHT22;22740;52.182;8.780;2023-09-18T01:29:53;20.80;99.90
36790;DHT22;22740;52.182;8.780;2023-09-18T01:35:55;21.00;99.90
36790;DHT22;22740;52.182;8.780;2023-09-18T01:42:02;21.00;99.90
36790;DHT22;22740;52.182;8.780;2023-09-18T01:48:05;20.90;99.90
36790;DHT22;22740;52.182;8.780;2023-09-18T01:54:08;21.10;99.90
36790;DHT22;22740;52.182;8.780;2023-09-18T02:00:10;21.10;99.90
36790;DHT22;22740;52.182;8.780;2023-09-18T02:06:12;21.00;99.90
36790;DHT22;22740;52.182;8.780;2023-09-18T02:12:14;20.90;99.90
36790;DHT22;22740;52.182;8.780;2023-09-18T02:18:19;20.90;99.90
36790;DHT22;22740;52.182;8.780;2023-09-18T02:24:20;20.80;99.90
36790;DHT22;22740;52.182;8.780;2023-09-18T02:30:22;20.70;99.90
36790;DHT22;22740;52.182;8.780;2023-09-18T02:36:24;20.90;99.90
36790;DHT22;22740;52.182;8.780;2023-09-18T02:42:26;21.20;99.90
36790;DHT22;22740;52.182;8.780;2023-09-18T02:48:28;21.20;78.30
36790;DHT22;22740;52.182;8.780;2023-09-18T02:54:29;21.30;66.80
36790;DHT22;22740;52.182;8.780;2023-09-18T03:00:31;21.30;95.70
36790;DHT22;22740;52.182;8.780;2023-09-18T03:06:44;21.30;50.80
36790;DHT22;22740;52.182;8.780;2023-09-18T03:12:49;21.50;42.00
36790;DHT22;22740;52.182;8.780;2023-09-18T03:18:51;21.70;23.10
36790;DHT22;22740;52.182;8.780;2023-09-18T03:24:53;21.60;16.50
36790;DHT22;22740;52.182;8.780;2023-09-18T03:30:54;21.60;16.40
36790;DHT22;22740;52.182;8.780;2023-09-18T03:36:56;21.60;17.10
36790;DHT22;22740;52.182;8.780;2023-09-18T03:42:58;21.60;16.30
36790;DHT22;22740;52.182;8.780;2023-09-18T03:49:00;21.60;18.90
36790;DHT22;22740;52.182;8.780;2023-09-18T03:55:02;21.50;28.70
36790;DHT22;22740;52.182;8.780;2023-09-18T04:01:04;21.60;25.70
36790;DHT22;22740;52.182;8.780;2023-09-18T04:07:06;21.70;9.90
36790;DHT22;22740;52.182;8.780;2023-09-18T04:13:08;21.70;10.30
36790;DHT22;22740;52.182;8.780;2023-09-18T04:19:10;21.70;11.00
36790;DHT22;22740;52.182;8.780;2023-09-18T04:25:13;21.70;19.40
36790;DHT22;22740;52.182;8.780;2023-09-18T04:31:15;21.70;4.50
36790;DHT22;22740;52.182;8.780;2023-09-18T04:37:17;21.60;19.70
36790;DHT22;22740;52.182;8.780;2023-09-18T04:43:19;21.60;12.60
36790;DHT22;22740;52.182;8.780;2023-09-18T04:49:21;21.50;20.40
36790;DHT22;22740;52.182;8.780;2023-09-18T04:55:23;21.50;29.50
36790;DHT22;22740;52.182;8.780;2023-09-18T05:01:25;21.30;31.10
36790;DHT22;22740;52.182;8.780;2023-09-18T05:07:27;21.20;50.00
36790;DHT22;22740;52.182;8.780;2023-09-18T05:13:28;21.20;49.50
36790;DHT22;22740;52.182;8.780;2023-09-18T05:19:30;21.20;52.50
36790;DHT22;22740;52.182;8.780;2023-09-18T05:25:32;21.20;48.00
36790;DHT22;22740;52.182;8.780;2023-09-18T05:31:34;21.10;46.40
36790;DHT22;22740;52.182;8.780;2023-09-18T05:37:36;21.10;50.00
36790;DHT22;22740;52.182;8.780;2023-09-18T05:43:40;21.00;91.10
36790;DHT22;22740;52.182;8.780;2023-09-18T05:49:42;20.90;91.20
36790;DHT22;22740;52.182;8.780;2023-09-18T05:55:43;20.70;99.90
36790;DHT22;22740;52.182;8.780;2023-09-18T06:01:46;20.50;99.90
36790;DHT22;22740;52.182;8.780;2023-09-18T06:07:50;20.40;99.90
36790;DHT22;22740;52.182;8.780;2023-09-18T06:13:52;20.40;99.90
36790;DHT22;22740;52.182;8.780;2023-09-18T06:19:54;20.40;99.90
36790;DHT22;22740;52.182;8.780;2023-09-18T06:25:57;20.40;99.90
36790;DHT22;22740;52.182;8.780;2023-09-18T06:32:00;20.40;99.90
36790;DHT22;22740;52.182;8.780;2023-09-18T06:38:02;20.40;99.90
36790;DHT22;22740;52.182;8.780;2023-09-18T06:44:04;20.40;99.90
36790;DHT22;22740;52.182;8.780;2023-09-18T06:50:06;20.50;99.90
36790;DHT22;22740;52.182;8.780;2023-09-18T06:56:08;20.50;99.90
36790;DHT22;22740;52.182;8.780;2023-09-18T07:02:10;20.50;99.90
36790;DHT22;22740;52.182;8.780;2023-09-18T07:08:12;20.60;99.90
36790;DHT22;22740;52.182;8.780;2023-09-18T07:14:14;20.90;99.90
36790;DHT22;22740;52.182;8.780;2023-09-18T07:20:16;20.90;99.90
36790;DHT22;22740;52.182;8.780;2023-09-18T07:26:20;21.00;99.90
36790;DHT22;22740;52.182;8.780;2023-09-18T07:32:22;21.00;99.90
36790;DHT22;22740;52.182;8.780;2023-09-18T07:38:38;21.00;99.90
36790;DHT22;22740;52.182;8.780;2023-09-18T07:44:40;21.00;99.90
36790;DHT22;22740;52.182;8.780;2023-09-18T07:50:45;21.20;99.90
36790;DHT22;22740;52.182;8.780;2023-09-18T07:56:47;21.50;99.90
36790;DHT22;22740;52.182;8.780;2023-09-18T08:02:49;21.70;99.90
36790;DHT22;22740;52.182;8.780;2023-09-18T08:08:53;21.90;99.90
36790;DHT22;22740;52.182;8.780;2023-09-18T08:14:55;22.00;90.40
36790;DHT22;22740;52.182;8.780;2023-09-18T08:21:00;22.00;94.50
36790;DHT22;22740;52.182;8.780;2023-09-18T08:27:02;21.80;87.60
36790;DHT22;22740;52.182;8.780;2023-09-18T08:33:05;21.80;62.30
36790;DHT22;22740;52.182;8.780;2023-09-18T08:39:07;21.70;51.30
36790;DHT22;22740;52.182;8.780;2023-09-18T08:45:09;21.70;71.10
36790;DHT22;22740;52.182;8.780;2023-09-18T08:51:12;21.60;62.30
36790;DHT22;22740;52.182;8.780;2023-09-18T08:57:14;21.60;57.50
36790;DHT22;22740;52.182;8.780;2023-09-18T09:03:16;21.50;58.20
36790;DHT22;22740;52.182;8.780;2023-09-18T09:09:18;21.50;68.70
36790;DHT22;22740;52.182;8.780;2023-09-18T09:15:21;21.50;50.00
36790;DHT22;22740;52.182;8.780;2023-09-18T09:21:24;21.50;50.70
36790;DHT22;22740;52.182;8.780;2023-09-18T09:27:42;21.40;67.60
36790;DHT22;22740;52.182;8.780;2023-09-18T09:33:49;21.40;73.00
36790;DHT22;22740;52.182;8.780;2023-09-18T09:39:52;21.50;77.50
36790;DHT22;22740;52.182;8.780;2023-09-18T09:45:57;21.50;63.20
36790;DHT22;22740;52.182;8.780;2023-09-18T09:52:00;21.50;75.00
36790;DHT22;22740;52.182;8.780;2023-09-18T09:58:04;21.60;61.70
36790;DHT22;22740;52.182;8.780;2023-09-18T10:04:09;21.50;56.80
36790;DHT22;22740;52.182;8.780;2023-09-18T10:10:11;21.40;91.80
36790;DHT22;22740;52.182;8.780;2023-09-18T10:16:14;21.40;86.80
36790;DHT22;22740;52.182;8.780;2023-09-18T10:28:29;21.30;84.90
36790;DHT22;22740;52.182;8.780;2023-09-18T10:34:32;21.40;80.40
36790;DHT22;22740;52.182;8.780;2023-09-18T10:40:35;21.50;87.40
36790;DHT22;22740;52.182;8.780;2023-09-18T10:46:37;21.60;61.50
36790;DHT22;22740;52.182;8.780;2023-09-18T10:52:43;21.50;59.40
36790;DHT22;22740;52.182;8.780;2023-09-18T10:58:45;21.60;60.30
36790;DHT22;22740;52.182;8.780;2023-09-18T11:04:47;21.60;46.80
36790;DHT22;22740;52.182;8.780;2023-09-18T11:11:22;21.70;31.90
36790;DHT22;22740;52.182;8.780;2023-09-18T11:17:32;21.90;33.70
36790;DHT22;22740;52.182;8.780;2023-09-18T11:23:38;21.80;46.80
36790;DHT22;22740;52.182;8.780;2023-09-18T11:29:44;21.80;87.70
36790;DHT22;22740;52.182;8.780;2023-09-18T11:35:51;21.80;34.40
36790;DHT22;22740;52.182;8.780;2023-09-18T11:42:05;21.90;46.40
36790;DHT22;22740;52.182;8.780;2023-09-18T11:48:07;21.90;28.10
36790;DHT22;22740;52.182;8.780;2023-09-18T11:54:12;22.00;40.60
36790;DHT22;22740;52.182;8.780;2023-09-18T12:00:18;22.00;21.40
36790;DHT22;22740;52.182;8.780;2023-09-18T12:06:23;22.50;11.60
36790;DHT22;22740;52.182;8.780;2023-09-18T12:12:25;22.90;1.00
36790;DHT22;22740;52.182;8.780;2023-09-18T12:18:28;22.70;1.00
36790;DHT22;22740;52.182;8.780;2023-09-18T12:24:31;22.40;1.00
36790;DHT22;22740;52.182;8.780;2023-09-18T12:30:33;22.30;1.00
36790;DHT22;22740;52.182;8.780;2023-09-18T12:36:35;22.20;1.00
36790;DHT22;22740;52.182;8.780;2023-09-18T12:42:38;22.20;1.00
36790;DHT22;22740;52.182;8.780;2023-09-18T12:48:42;22.10;1.00
36790;DHT22;22740;52.182;8.780;2023-09-18T12:54:48;22.10;1.00
36790;DHT22;22740;52.182;8.780;2023-09-18T13:00:56;22.10;9.00
36790;DHT22;22740;52.182;8.780;2023-09-18T13:07:08;22.20;5.50
36790;DHT22;22740;52.182;8.780;2023-09-18T13:13:20;22.90;1.00
36790;DHT22;22740;52.182;8.780;2023-09-18T13:19:23;23.50;1.00
36790;DHT22;22740;52.182;8.780;2023-09-18T13:25:25;23.40;1.00
36790;DHT22;22740;52.182;8.780;2023-09-18T13:31:28;23.50;1.00
36790;DHT22;22740;52.182;8.780;2023-09-18T13:37:33;23.60;1.00
36790;DHT22;22740;52.182;8.780;2023-09-18T13:43:35;23.30;1.00
36790;DHT22;22740;52.182;8.780;2023-09-18T13:49:38;23.20;1.00
36790;DHT22;22740;52.182;8.780;2023-09-18T13:55:40;23.10;1.00
36790;DHT22;22740;52.182;8.780;2023-09-18T14:01:41;23.00;1.00
36790;DHT22;22740;52.182;8.780;2023-09-18T14:07:43;23.20;1.00
36790;DHT22;22740;52.182;8.780;2023-09-18T14:13:47;23.60;1.00
36790;DHT22;22740;52.182;8.780;2023-09-18T14:19:49;23.60;1.00
36790;DHT22;22740;52.182;8.780;2023-09-18T14:25:51;23.70;1.00
36790;DHT22;22740;52.182;8.780;2023-09-18T14:31:53;23.20;1.00
36790;DHT22;22740;52.182;8.780;2023-09-18T14:37:55;22.80;1.00
36790;DHT22;22740;52.182;8.780;2023-09-18T14:43:57;22.60;1.00
36790;DHT22;22740;52.182;8.780;2023-09-18T14:50:00;22.40;1.00
36790;DHT22;22740;52.182;8.780;2023-09-18T14:56:03;22.40;1.00
36790;DHT22;22740;52.182;8.780;2023-09-18T15:02:05;22.30;1.00
36790;DHT22;22740;52.182;8.780;2023-09-18T15:08:07;22.10;3.60
36790;DHT22;22740;52.182;8.780;2023-09-18T15:14:10;22.00;14.10
36790;DHT22;22740;52.182;8.780;2023-09-18T15:20:13;22.10;1.90
36790;DHT22;22740;52.182;8.780;2023-09-18T15:26:15;22.50;1.00
36790;DHT22;22740;52.182;8.780;2023-09-18T15:32:17;22.60;1.00
36790;DHT22;22740;52.182;8.780;2023-09-18T15:38:19;22.40;1.00
36790;DHT22;22740;52.182;8.780;2023-09-18T15:44:22;22.40;1.00
36790;DHT22;22740;52.182;8.780;2023-09-18T15:50:24;22.40;1.00
36790;DHT22;22740;52.182;8.780;2023-09-18T15:56:26;22.60;1.00
36790;DHT22;22740;52.182;8.780;2023-09-18T16:02:28;23.10;1.00
36790;DHT22;22740;52.182;8.780;2023-09-18T16:08:30;23.10;1.00
36790;DHT22;22740;52.182;8.780;2023-09-18T16:14:31;23.00;1.00
36790;DHT22;22740;52.182;8.780;2023-09-18T16:20:33;22.90;1.00
36790;DHT22;22740;52.182;8.780;2023-09-18T16:26:35;22.40;1.00
36790;DHT22;22740;52.182;8.780;2023-09-18T16:32:37;21.90;1.00
36790;DHT22;22740;52.182;8.780;2023-09-18T16:38:40;22.00;9.50
36790;DHT22;22740;52.182;8.780;2023-09-18T16:44:43;22.00;1.00
36790;DHT22;22740;52.182;8.780;2023-09-18T16:50:45;22.00;98.70
36790;DHT22;22740;52.182;8.780;2023-09-18T16:56:47;21.90;99.90
36790;DHT22;22740;52.182;8.780;2023-09-18T17:02:49;21.80;99.90
36790;DHT22;22740;52.182;8.780;2023-09-18T17:08:53;21.50;99.90
36790;DHT22;22740;52.182;8.780;2023-09-18T17:14:54;21.20;99.90
36790;DHT22;22740;52.182;8.780;2023-09-18T17:20:56;21.00;99.90
36790;DHT22;22740;52.182;8.780;2023-09-18T17:26:59;20.50;99.90
36790;DHT22;22740;52.182;8.780;2023-09-18T17:33:01;20.20;99.90
36790;DHT22;22740;52.182;8.780;2023-09-18T17:39:05;20.00;99.90
36790;DHT22;22740;52.182;8.780;2023-09-18T17:45:09;19.90;99.90
36790;DHT22;22740;52.182;8.780;2023-09-18T17:51:12;19.90;99.90
36790;DHT22;22740;52.182;8.780;2023-09-18T17:57:16;19.80;99.90
36790;DHT22;22740;52.182;8.780;2023-09-18T18:03:17;19.80;99.90
36790;DHT22;22740;52.182;8.780;2023-09-18T18:09:20;19.80;99.90
36790;DHT22;22740;52.182;8.780;2023-09-18T18:15:21;19.80;99.90
36790;DHT22;22740;52.182;8.780;2023-09-18T18:21:23;19.70;99.90
36790;DHT22;22740;52.182;8.780;2023-09-18T18:27:25;19.70;99.90
36790;DHT22;22740;52.182;8.780;2023-09-18T18:33:27;19.70;99.90
36790;DHT22;22740;52.182;8.780;2023-09-18T18:39:29;19.70;99.90
36790;DHT22;22740;52.182;8.780;2023-09-18T18:45:31;19.80;99.90
36790;DHT22;22740;52.182;8.780;2023-09-18T18:51:33;19.80;99.90
36790;DHT22;22740;52.182;8.780;2023-09-18T18:57:35;19.90;99.90
36790;DHT22;22740;52.182;8.780;2023-09-18T19:03:37;19.90;99.90
36790;DHT22;22740;52.182;8.780;2023-09-18T19:09:39;19.90;97.60
36790;DHT22;22740;52.182;8.780;2023-09-18T19:15:42;19.90;97.60
36790;DHT22;22740;52.182;8.780;2023-09-18T19:21:44;19.90;98.60
36790;DHT22;22740;52.182;8.780;2023-09-18T19:27:46;19.90;93.90
36790;DHT22;22740;52.182;8.780;2023-09-18T19:33:48;19.70;1.00
36790;DHT22;22740;52.182;8.780;2023-09-18T19:39:49;18.90;35.40
36790;DHT22;22740;52.182;8.780;2023-09-18T19:45:52;18.60;79.50
36790;DHT22;22740;52.182;8.780;2023-09-18T19:51:54;18.70;99.90
36790;DHT22;22740;52.182;8.780;2023-09-18T19:57:58;18.50;99.90
36790;DHT22;22740;52.182;8.780;2023-09-18T20:04:00;18.00;99.90
36790;DHT22;22740;52.182;8.780;2023-09-18T20:10:02;17.50;99.90
36790;DHT22;22740;52.182;8.780;2023-09-18T20:16:04;17.10;99.90
36790;DHT22;22740;52.182;8.780;2023-09-18T20:22:06;16.90;99.90
36790;DHT22;22740;52.182;8.780;2023-09-18T20:28:08;16.90;99.90
36790;DHT22;22740;52.182;8.780;2023-09-18T20:34:09;16.80;99.90
36790;DHT22;22740;52.182;8.780;2023-09-18T20:40:11;16.70;99.90
36790;DHT22;22740;52.182;8.780;2023-09-18T20:46:13;16.70;99.90
36790;DHT22;22740;52.182;8.780;2023-09-18T20:52:15;16.60;99.90
36790;DHT22;22740;52.182;8.780;2023-09-18T20:58:17;16.70;99.90
36790;DHT22;22740;52.182;8.780;2023-09-18T21:04:19;16.60;99.90
36790;DHT22;22740;52.182;8.780;2023-09-18T21:10:21;16.50;99.90
36790;DHT22;22740;52.182;8.780;2023-09-18T21:16:33;16.60;99.90
36790;DHT22;22740;52.182;8.780;2023-09-18T21:22:36;16.50;99.90
36790;DHT22;22740;52.182;8.780;2023-09-18T21:28:38;16.50;99.90
36790;DHT22;22740;52.182;8.780;2023-09-18T21:34:40;16.40;99.90
36790;DHT22;22740;52.182;8.780;2023-09-18T21:40:42;16.30;99.90
36790;DHT22;22740;52.182;8.780;2023-09-18T21:46:43;16.40;99.90
36790;DHT22;22740;52.182;8.780;2023-09-18T21:52:46;16.30;99.90
36790;DHT22;22740;52.182;8.780;2023-09-18T21:58:47;16.30;99.90
36790;DHT22;22740;52.182;8.780;2023-09-18T22:04:49;16.30;99.90
36790;DHT22;22740;52.182;8.780;2023-09-18T22:10:52;16.30;99.90
36790;DHT22;22740;52.182;8.780;2023-09-18T22:16:54;16.30;99.90
36790;DHT22;22740;52.182;8.780;2023-09-18T22:22:56;16.30;99.90
36790;DHT22;22740;52.182;8.780;2023-09-18T22:29:04;16.20;99.90
36790;DHT22;22740;52.182;8.780;2023-09-18T22:35:08;16.30;99.90
36790;DHT22;22740;52.182;8.780;2023-09-18T22:59:38;16.20;99.90
36790;DHT22;22740;52.182;8.780;2023-09-18T23:05:40;16.10;99.90
36790;DHT22;22740;52.182;8.780;2023-09-18T23:11:42;16.20;99.90
36790;DHT22;22740;52.182;8.780;2023-09-18T23:17:44;16.20;99.90
36790;DHT22;22740;52.182;8.780;2023-09-18T23:23:46;16.20;99.90
36790;DHT22;22740;52.182;8.780;2023-09-18T23:29:48;16.20;99.90
36790;DHT22;22740;52.182;8.780;2023-09-18T23:35:50;16.30;99.90
36790;DHT22;22740;52.182;8.780;2023-09-18T23:41:52;16.30;99.90
36790;DHT22;22740;52.182;8.780;2023-09-18T23:47:56;16.20;99.90
36790;DHT22;22740;52.182;8.780;2023-09-18T23:54:00;16.20;99.90
